Time;durP1;ratioP1;P1;durP2;ratioP2;P2;SDS_P1;SDS_P2;PMS_P1;PMS_P2;Temp;Humidity;BMP_temperature;BMP_pressure;BME280_temperature;BME280_humidity;BME280_pressure;Samples;Min_cycle;Max_cycle;Signal;HPM_P1;HPM_P2
2022/10/18 00:02:01;;;;;;;0.85;0.52;;;;;;;;;;5068949;28;20067;-85
2022/10/18 00:04:30;;;;;;;3.58;0.88;;;;;;;;;;5068029;28;20059;-85
2022/10/18 00:06:58;;;;;;;6.00;1.88;;;;;;;;;;5069394;28;20049;-84
2022/10/18 00:09:27;;;;;;;1.88;0.98;;;;;;;;;;5065947;28;20484;-84
2022/10/18 00:11:55;;;;;;;2.63;1.13;;;;;;;;;;5064614;28;20048;-84
2022/10/18 00:14:24;;;;;;;2.13;0.80;;;;;;;;;;5064209;28;20377;-84
2022/10/18 00:16:52;;;;;;;2.63;1.10;;;;;;;;;;5063634;28;20098;-84
2022/10/18 00:19:21;;;;;;;1.50;1.17;;;;;;;;;;5066592;28;20439;-84
2022/10/18 00:21:55;;;;;;;;;;;;;;;;;;5072571;28;20045;-84
2022/10/18 00:24:23;;;;;;;1.48;0.82;;;;;;;;;;5072448;28;20369;-84
2022/10/18 00:26:52;;;;;;;1.65;0.98;;;;;;;;;;5072111;28;20095;-84
2022/10/18 00:29:20;;;;;;;2.20;1.48;;;;;;;;;;5073639;28;20143;-84
2022/10/18 00:31:48;;;;;;;3.05;1.05;;;;;;;;;;5076158;28;20063;-84
2022/10/18 00:34:17;;;;;;;1.88;0.88;;;;;;;;;;5067438;28;20067;-84
2022/10/18 00:36:48;;;;;;;1.48;0.90;;;;;;;;;;5065552;28;20555;-85
2022/10/18 00:39:19;;;;;;;1.88;0.90;;;;;;;;;;5074198;28;20048;-84
2022/10/18 00:41:48;;;;;;;2.63;1.10;;;;;;;;;;5059815;28;20041;-86
2022/10/18 00:44:37;;;;;;;3.33;0.75;;;;;;;;;;5071553;28;20045;-84
2022/10/18 00:47:07;;;;;;;0.95;0.60;;;;;;;;;;5068880;28;20052;-84
2022/10/18 00:49:37;;;;;;;1.58;0.70;;;;;;;;;;5065151;28;20052;-84
2022/10/18 00:52:08;;;;;;;1.65;0.82;;;;;;;;;;5071128;28;20059;-84
2022/10/18 00:54:37;;;;;;;4.80;1.20;;;;;;;;;;5067427;28;20049;-84
2022/10/18 00:57:05;;;;;;;2.00;1.00;;;;;;;;;;5074545;28;20469;-84
2022/10/18 00:59:34;;;;;;;1.92;1.17;;;;;;;;;;5080539;28;20068;-84
2022/10/18 01:02:03;;;;;;;3.95;0.80;;;;;;;;;;5068689;28;20045;-85
2022/10/18 01:04:31;;;;;;;3.05;1.13;;;;;;;;;;5069281;28;20056;-84
2022/10/18 01:07:01;;;;;;;5.57;1.80;;;;;;;;;;5062281;28;20044;-84
2022/10/18 01:09:34;;;;;;;2.05;1.30;;;;;;;;;;5067618;28;20043;-84
2022/10/18 01:12:10;;;;;;;2.72;1.38;;;;;;;;;;5072537;28;20055;-84
2022/10/18 01:14:43;;;;;;;4.78;1.10;;;;;;;;;;5068185;28;20056;-84
2022/10/18 01:17:13;;;;;;;3.55;1.10;;;;;;;;;;5069690;28;20048;-84
2022/10/18 01:20:02;;;;;;;1.20;0.70;;;;;;;;;;5063367;28;20056;-84
2022/10/18 01:22:34;;;;;;;1.25;0.70;;;;;;;;;;5068710;28;20518;-84
2022/10/18 01:25:07;;;;;;;1.55;0.75;;;;;;;;;;5075542;28;20053;-84
2022/10/18 01:27:40;;;;;;;3.58;0.95;;;;;;;;;;5057168;28;20051;-84
2022/10/18 01:30:29;;;;;;;1.08;0.60;;;;;;;;;;5074215;28;20553;-84
2022/10/18 01:32:59;;;;;;;1.02;0.93;;;;;;;;;;5081862;28;20055;-84
2022/10/18 01:35:30;;;;;;;2.78;1.17;;;;;;;;;;5064936;28;20060;-84
2022/10/18 01:38:00;;;;;;;1.58;0.80;;;;;;;;;;5065706;28;20059;-84
2022/10/18 01:40:30;;;;;;;1.45;0.60;;;;;;;;;;5071068;28;20052;-84
2022/10/18 01:42:59;;;;;;;1.98;1.25;;;;;;;;;;5066203;28;20549;-86
2022/10/18 01:45:29;;;;;;;2.55;0.98;;;;;;;;;;5066456;28;20041;-91
2022/10/18 01:47:57;;;;;;;2.60;1.02;;;;;;;;;;5087530;28;20052;-96
2022/10/18 01:50:33;;;;;;;2.33;0.73;;;;;;;;;;5085558;28;20052;-96
2022/10/18 01:53:02;;;;;;;3.80;0.70;;;;;;;;;;5071465;28;20041;-96
2022/10/18 01:55:49;;;;;;;1.75;0.70;;;;;;;;;;5067250;28;20458;-96
2022/10/18 01:58:36;;;;;;;1.10;0.77;;;;;;;;;;5069544;28;20055;-96
2022/10/18 02:01:09;;;;;;;2.40;1.25;;;;;;;;;;5069235;28;20051;-96
2022/10/18 02:04:04;;;;;;;0.60;0.50;;;;;;;;;;5046665;28;20049;-96
2022/10/18 02:06:36;;;;;;;1.73;0.52;;;;;;;;;;5049161;28;20053;-96
2022/10/18 02:09:31;;;;;;;8.48;1.17;;;;;;;;;;5047629;28;20053;-96
2022/10/18 02:12:14;;;;;;;1.75;0.95;;;;;;;;;;5039628;28;20710;-96
2022/10/18 02:17:58;;;;;;;3.00;0.77;;;;;;;;;;5007654;28;20049;-96
2022/10/18 02:20:52;;;;;;;2.65;0.98;;;;;;;;;;5007632;28;20049;-96
2022/10/18 02:32:35;;;;;;;1.85;0.47;;;;;;;;;;4999003;28;20088;-96
2022/10/18 02:35:16;;;;;;;2.85;1.55;;;;;;;;;;5023015;28;20518;-96
2022/10/18 02:40:47;;;;;;;1.92;0.65;;;;;;;;;;5020067;28;20057;-96
2022/10/18 02:43:16;;;;;;;0.90;0.90;;;;;;;;;;5011826;28;20065;-96
2022/10/18 02:48:51;;;;;;;1.35;0.55;;;;;;;;;;5025846;28;20139;-96
2022/10/18 02:51:37;;;;;;;0.73;0.55;;;;;;;;;;5045474;28;20115;-96
2022/10/18 02:54:27;;;;;;;1.92;0.93;;;;;;;;;;4953474;28;20657;-96
2022/10/18 03:00:15;;;;;;;1.90;1.08;;;;;;;;;;4917215;29;20047;-96
2022/10/18 03:03:10;;;;;;;4.35;1.10;;;;;;;;;;4953285;28;20055;-96
2022/10/18 03:11:26;;;;;;;2.50;1.00;;;;;;;;;;4973589;28;20051;-96
2022/10/18 03:17:10;;;;;;;1.95;0.90;;;;;;;;;;4993446;28;20093;-96
2022/10/18 03:20:04;;;;;;;1.98;0.63;;;;;;;;;;5006474;28;20437;-96
2022/10/18 03:22:59;;;;;;;4.20;0.98;;;;;;;;;;5010480;28;20065;-96
2022/10/18 03:25:46;;;;;;;0.85;0.63;;;;;;;;;;5029912;28;20049;-96
2022/10/18 03:28:16;;;;;;;1.13;0.55;;;;;;;;;;5021939;28;20061;-96
2022/10/18 03:31:07;;;;;;;1.42;0.70;;;;;;;;;;5019305;28;20485;-96
2022/10/18 03:33:56;;;;;;;0.50;0.45;;;;;;;;;;5017335;28;20060;-96
2022/10/18 03:36:56;;;;;;;1.33;1.10;;;;;;;;;;5025281;28;20462;-96
2022/10/18 03:40:11;;;;;;;2.45;0.63;;;;;;;;;;5022321;28;20557;-96
2022/10/18 03:42:40;;;;;;;1.40;0.80;;;;;;;;;;5025072;28;20501;-96
2022/10/18 03:45:17;;;;;;;5.93;1.20;;;;;;;;;;5023147;28;20079;-96
2022/10/18 03:48:06;;;;;;;2.22;0.68;;;;;;;;;;5035787;28;20056;-96
2022/10/18 03:50:52;;;;;;;1.05;0.50;;;;;;;;;;5047968;28;20049;-96
2022/10/18 03:53:51;;;;;;;3.05;0.68;;;;;;;;;;5001389;28;20064;-96
2022/10/18 04:05:52;;;;;;;0.73;0.43;;;;;;;;;;5020642;28;20049;-96
2022/10/18 04:08:26;;;;;;;2.25;0.57;;;;;;;;;;5032411;28;20545;-96
2022/10/18 04:11:07;;;;;;;1.30;0.65;;;;;;;;;;5029017;28;20045;-96
2022/10/18 04:17:25;;;;;;;1.38;0.80;;;;;;;;;;5030125;28;20080;-96
2022/10/18 04:23:17;;;;;;;1.67;0.55;;;;;;;;;;5028048;28;20487;-96
2022/10/18 04:25:56;;;;;;;0.95;0.57;;;;;;;;;;5061207;28;20040;-96
2022/10/18 04:28:44;;;;;;;1.23;0.47;;;;;;;;;;4983144;28;20046;-96
2022/10/18 04:31:16;;;;;;;2.15;0.90;;;;;;;;;;4957185;28;20051;-96
2022/10/18 04:34:13;;;;;;;3.03;0.90;;;;;;;;;;4988029;28;20085;-96
2022/10/18 04:36:42;;;;;;;2.05;0.70;;;;;;;;;;4977197;28;20601;-96
2022/10/18 04:39:13;;;;;;;1.98;0.80;;;;;;;;;;4983630;28;20051;-96
2022/10/18 04:41:43;;;;;;;1.15;0.32;;;;;;;;;;4976819;28;20046;-96
2022/10/18 04:44:20;;;;;;;1.70;0.68;;;;;;;;;;4982351;28;20149;-96
2022/10/18 04:50:00;;;;;;;1.40;0.55;;;;;;;;;;4984965;28;20138;-95
2022/10/18 04:52:36;;;;;;;2.22;1.38;;;;;;;;;;4979971;28;20053;-94
2022/10/18 04:55:18;;;;;;;1.65;1.25;;;;;;;;;;4981245;28;20077;-96
2022/10/18 04:57:49;;;;;;;1.77;0.45;;;;;;;;;;4978353;28;20463;-96
2022/10/18 05:00:18;;;;;;;2.00;0.60;;;;;;;;;;5076026;23;20041;-95
2022/10/18 05:02:48;;;;;;;2.13;0.60;;;;;;;;;;5092275;23;20045;-89
2022/10/18 05:05:16;;;;;;;0.50;0.50;;;;;;;;;;5084179;28;20055;-90
2022/10/18 05:07:45;;;;;;;1.13;0.60;;;;;;;;;;5089688;28;20044;-91
2022/10/18 05:10:14;;;;;;;0.70;0.38;;;;;;;;;;5077834;28;20056;-90
2022/10/18 05:12:43;;;;;;;1.98;0.60;;;;;;;;;;5082288;28;20463;-89
2022/10/18 05:15:12;;;;;;;0.90;0.55;;;;;;;;;;5080723;28;20119;-89
2022/10/18 05:17:40;;;;;;;1.27;0.80;;;;;;;;;;5079771;28;20523;-88
2022/10/18 05:20:09;;;;;;;4.75;0.75;;;;;;;;;;5084897;28;20040;-89
2022/10/18 05:22:38;;;;;;;0.82;0.32;;;;;;;;;;5082457;28;20151;-89
2022/10/18 05:25:06;;;;;;;1.80;0.85;;;;;;;;;;5084442;28;20044;-91
2022/10/18 05:27:35;;;;;;;0.95;0.60;;;;;;;;;;5078121;28;20431;-90
2022/10/18 05:30:05;;;;;;;1.77;0.85;;;;;;;;;;5087950;28;20051;-90
2022/10/18 05:32:33;;;;;;;1.23;0.70;;;;;;;;;;5090244;28;20047;-88
2022/10/18 05:35:02;;;;;;;1.33;1.08;;;;;;;;;;5084624;28;20393;-88
2022/10/18 05:37:30;;;;;;;3.03;0.80;;;;;;;;;;5079524;28;20053;-90
2022/10/18 05:39:59;;;;;;;0.95;0.50;;;;;;;;;;5081211;28;20051;-92
2022/10/18 05:42:27;;;;;;;1.58;1.00;;;;;;;;;;5086110;28;20047;-89
2022/10/18 05:44:58;;;;;;;0.85;0.80;;;;;;;;;;5088179;28;20048;-89
2022/10/18 05:47:27;;;;;;;3.78;0.52;;;;;;;;;;5101068;28;20053;-90
2022/10/18 05:49:56;;;;;;;3.85;1.00;;;;;;;;;;5084058;28;20064;-89
2022/10/18 05:52:24;;;;;;;2.15;0.70;;;;;;;;;;5093185;28;20488;-89
2022/10/18 05:54:52;;;;;;;3.72;0.65;;;;;;;;;;5092257;28;20040;-89
2022/10/18 05:57:21;;;;;;;1.00;0.73;;;;;;;;;;5081365;28;20051;-88
2022/10/18 05:59:49;;;;;;;0.75;0.45;;;;;;;;;;5094154;28;20134;-89
2022/10/18 06:02:18;;;;;;;0.90;0.35;;;;;;;;;;5081217;28;20051;-88
2022/10/18 06:04:47;;;;;;;1.10;0.98;;;;;;;;;;5094045;28;20051;-89
2022/10/18 06:07:16;;;;;;;1.58;0.40;;;;;;;;;;5086737;28;20443;-89
2022/10/18 06:09:44;;;;;;;0.77;0.32;;;;;;;;;;5083731;28;20569;-89
2022/10/18 06:12:13;;;;;;;0.50;0.50;;;;;;;;;;5085167;28;20072;-88
2022/10/18 06:14:44;;;;;;;2.10;0.82;;;;;;;;;;5088062;28;20128;-88
2022/10/18 06:17:12;;;;;;;0.80;0.60;;;;;;;;;;5087841;28;20135;-88
2022/10/18 06:19:42;;;;;;;0.63;0.60;;;;;;;;;;5082024;28;20047;-90
2022/10/18 06:22:12;;;;;;;1.67;0.68;;;;;;;;;;5089087;28;20050;-88
2022/10/18 06:24:40;;;;;;;0.57;0.50;;;;;;;;;;5087163;28;20040;-90
2022/10/18 06:27:09;;;;;;;0.75;0.40;;;;;;;;;;5088673;28;20048;-89
2022/10/18 06:29:37;;;;;;;0.55;0.38;;;;;;;;;;5083739;28;20561;-87
2022/10/18 06:32:07;;;;;;;0.73;0.50;;;;;;;;;;5092257;28;20047;-88
2022/10/18 06:34:35;;;;;;;0.68;0.45;;;;;;;;;;5094415;28;20047;-88
2022/10/18 06:37:04;;;;;;;2.50;1.02;;;;;;;;;;5090287;28;20048;-89
2022/10/18 06:39:34;;;;;;;7.43;0.60;;;;;;;;;;5091161;28;20094;-86
2022/10/18 06:42:02;;;;;;;1.55;0.60;;;;;;;;;;5074422;28;20055;-88
2022/10/18 06:44:30;;;;;;;0.60;0.60;;;;;;;;;;5078574;28;20048;-87
2022/10/18 06:46:59;;;;;;;1.48;0.55;;;;;;;;;;5083658;28;20051;-88
2022/10/18 06:49:27;;;;;;;1.15;0.60;;;;;;;;;;5091105;28;20060;-88
2022/10/18 06:51:55;;;;;;;2.08;0.90;;;;;;;;;;5084546;28;20121;-89
2022/10/18 06:54:24;;;;;;;1.70;0.77;;;;;;;;;;5082213;28;20488;-89
2022/10/18 06:56:56;;;;;;;2.95;0.98;;;;;;;;;;5084119;28;20055;-87
2022/10/18 06:59:24;;;;;;;1.20;0.70;;;;;;;;;;5078772;28;20065;-87
2022/10/18 07:01:58;;;;;;;1.38;0.90;;;;;;;;;;5080744;28;20056;-89
2022/10/18 07:04:29;;;;;;;2.78;0.93;;;;;;;;;;5084391;28;20400;-88
2022/10/18 07:06:57;;;;;;;1.85;0.80;;;;;;;;;;5081909;28;20501;-89
2022/10/18 07:09:25;;;;;;;1.30;0.90;;;;;;;;;;5083705;28;20052;-87
2022/10/18 07:11:55;;;;;;;0.60;0.32;;;;;;;;;;5084497;28;20388;-88
2022/10/18 07:14:24;;;;;;;0.50;0.50;;;;;;;;;;5089766;28;20054;-88
2022/10/18 07:16:58;;;;;;;1.52;0.80;;;;;;;;;;5085126;28;20048;-88
2022/10/18 07:19:27;;;;;;;1.75;0.82;;;;;;;;;;5087757;28;20050;-88
2022/10/18 07:21:55;;;;;;;1.23;0.80;;;;;;;;;;5086566;28;20068;-88
2022/10/18 07:24:23;;;;;;;2.30;0.75;;;;;;;;;;5087925;28;20494;-90
2022/10/18 07:26:52;;;;;;;1.38;0.98;;;;;;;;;;5089503;28;20056;-89
2022/10/18 07:29:22;;;;;;;2.88;0.90;;;;;;;;;;5085211;28;20070;-90
2022/10/18 07:31:50;;;;;;;1.10;0.57;;;;;;;;;;5072726;28;20056;-90
2022/10/18 07:34:18;;;;;;;0.98;0.68;;;;;;;;;;5072365;28;20044;-89
2022/10/18 07:36:47;;;;;;;0.82;0.63;;;;;;;;;;5084263;28;20051;-89
2022/10/18 07:39:15;;;;;;;1.83;0.80;;;;;;;;;;5087620;28;20163;-88
2022/10/18 07:41:44;;;;;;;7.82;1.15;;;;;;;;;;5087064;28;20074;-90
2022/10/18 07:44:12;;;;;;;1.45;0.85;;;;;;;;;;5087059;28;20051;-89
2022/10/18 07:46:42;;;;;;;1.20;0.90;;;;;;;;;;5085383;28;20040;-89
2022/10/18 07:49:11;;;;;;;1.25;0.68;;;;;;;;;;5084827;28;20044;-89
2022/10/18 07:51:39;;;;;;;1.67;0.52;;;;;;;;;;5081005;28;20076;-89
2022/10/18 07:54:08;;;;;;;0.80;0.50;;;;;;;;;;5087238;28;20054;-89
2022/10/18 07:56:36;;;;;;;2.65;1.17;;;;;;;;;;5072028;28;20588;-89
2022/10/18 07:59:04;;;;;;;3.88;0.70;;;;;;;;;;5086031;28;20060;-89
2022/10/18 08:01:33;;;;;;;4.85;0.73;;;;;;;;;;5075574;28;20088;-89
2022/10/18 08:04:03;;;;;;;2.40;1.05;;;;;;;;;;5077756;28;20044;-90
2022/10/18 08:06:36;;;;;;;5.82;0.80;;;;;;;;;;5087342;28;20085;-89
2022/10/18 08:09:04;;;;;;;0.80;0.65;;;;;;;;;;5075267;28;20056;-90
2022/10/18 08:11:33;;;;;;;3.85;1.23;;;;;;;;;;5086311;28;20056;-89
2022/10/18 08:14:02;;;;;;;2.55;1.20;;;;;;;;;;5086952;28;20050;-89
2022/10/18 08:16:31;;;;;;;2.53;0.82;;;;;;;;;;5091543;28;20488;-89
2022/10/18 08:19:06;;;;;;;6.72;0.90;;;;;;;;;;5085232;28;20052;-90
2022/10/18 08:21:34;;;;;;;1.90;0.98;;;;;;;;;;5075690;28;20083;-89
2022/10/18 08:24:03;;;;;;;2.15;1.00;;;;;;;;;;5083186;28;20040;-86
2022/10/18 08:26:31;;;;;;;3.20;1.00;;;;;;;;;;5083417;28;20045;-88
2022/10/18 08:29:00;;;;;;;3.65;0.98;;;;;;;;;;5076704;28;20408;-88
2022/10/18 08:31:50;;;;;;;1.00;0.50;;;;;;;;;;5080682;28;20055;-89
2022/10/18 08:34:19;;;;;;;2.78;0.70;;;;;;;;;;5081009;28;20097;-88
2022/10/18 08:36:48;;;;;;;10.00;1.10;;;;;;;;;;5083250;28;20052;-91
2022/10/18 08:39:16;;;;;;;1.13;0.70;;;;;;;;;;5079506;28;20459;-89
2022/10/18 08:41:49;;;;;;;1.27;0.80;;;;;;;;;;5086238;28;20381;-89
2022/10/18 08:44:20;;;;;;;1.23;0.70;;;;;;;;;;5085151;28;20098;-91
2022/10/18 08:46:50;;;;;;;0.70;0.57;;;;;;;;;;5088692;28;20533;-87
2022/10/18 08:49:25;;;;;;;4.18;0.98;;;;;;;;;;5089901;28;20544;-89
2022/10/18 08:51:53;;;;;;;;;;;;;;;;;;5076053;28;20063;-91
2022/10/18 08:54:24;;;;;;;1.15;0.70;;;;;;;;;;5086128;28;19973;-89
2022/10/18 08:56:57;;;;;;;2.45;1.05;;;;;;;;;;5083845;28;20063;-90
2022/10/18 08:59:26;;;;;;;0.90;0.60;;;;;;;;;;5081344;28;20360;-88
2022/10/18 09:02:02;;;;;;;1.17;1.02;;;;;;;;;;5091021;28;20060;-87
2022/10/18 09:04:43;;;;;;;1.13;0.73;;;;;;;;;;5086073;28;20070;-89
2022/10/18 09:07:24;;;;;;;3.13;0.77;;;;;;;;;;5075715;28;20075;-89
2022/10/18 09:09:54;;;;;;;1.83;1.60;;;;;;;;;;5072477;28;20044;-89
2022/10/18 09:12:41;;;;;;;1.23;1.02;;;;;;;;;;5076908;28;20049;-87
2022/10/18 09:15:14;;;;;;;1.15;1.10;;;;;;;;;;5085186;28;20040;-90
2022/10/18 09:17:48;;;;;;;0.80;0.80;;;;;;;;;;5075625;28;20132;-89
2022/10/18 09:20:21;;;;;;;2.00;0.77;;;;;;;;;;5076657;28;20056;-93
2022/10/18 09:22:54;;;;;;;2.00;0.70;;;;;;;;;;5078179;28;20044;-87
2022/10/18 09:25:24;;;;;;;2.80;1.00;;;;;;;;;;5086650;28;20052;-89
2022/10/18 09:27:54;;;;;;;4.03;0.95;;;;;;;;;;5074870;28;20048;-89
2022/10/18 09:30:42;;;;;;;1.48;1.30;;;;;;;;;;5073751;28;20049;-89
2022/10/18 09:33:25;;;;;;;1.83;1.15;;;;;;;;;;5073042;28;20524;-90
2022/10/18 09:35:57;;;;;;;1.73;0.80;;;;;;;;;;5072241;28;20056;-88
2022/10/18 09:38:29;;;;;;;1.65;1.05;;;;;;;;;;5077353;28;20083;-92
2022/10/18 09:41:00;;;;;;;2.20;1.00;;;;;;;;;;5081431;28;20133;-89
2022/10/18 09:43:35;;;;;;;1.40;1.02;;;;;;;;;;5085703;28;20087;-91
2022/10/18 09:46:05;;;;;;;1.38;0.93;;;;;;;;;;5084339;28;20044;-89
2022/10/18 09:48:36;;;;;;;1.73;1.20;;;;;;;;;;5086319;28;20088;-89
2022/10/18 09:51:10;;;;;;;4.70;0.93;;;;;;;;;;5071964;28;20070;-90
2022/10/18 09:53:42;;;;;;;0.80;0.80;;;;;;;;;;5088033;28;20615;-91
2022/10/18 09:56:12;;;;;;;4.35;0.60;;;;;;;;;;5092319;28;20567;-89
2022/10/18 09:58:43;;;;;;;1.55;1.10;;;;;;;;;;5090346;28;20797;-90
2022/10/18 10:01:13;;;;;;;1.05;0.95;;;;;;;;;;5091572;28;20718;-89
2022/10/18 10:03:42;;;;;;;0.63;0.63;;;;;;;;;;5084985;28;20051;-88
2022/10/18 10:06:17;;;;;;;6.78;1.23;;;;;;;;;;5085637;28;20128;-88
2022/10/18 10:08:49;;;;;;;1.33;1.02;;;;;;;;;;5088423;28;20433;-89
2022/10/18 10:11:27;;;;;;;1.55;1.17;;;;;;;;;;5090223;28;20054;-89
2022/10/18 10:13:57;;;;;;;0.80;0.68;;;;;;;;;;5076612;28;20040;-88
2022/10/18 10:16:27;;;;;;;0.98;0.60;;;;;;;;;;5077914;28;20056;-88
2022/10/18 10:18:56;;;;;;;3.58;0.95;;;;;;;;;;5071574;28;20460;-93
2022/10/18 10:21:27;;;;;;;0.85;0.70;;;;;;;;;;5069079;28;20497;-89
2022/10/18 10:23:57;;;;;;;2.38;1.08;;;;;;;;;;5075221;28;20044;-88
2022/10/18 10:26:28;;;;;;;1.42;0.90;;;;;;;;;;5079849;28;20063;-91
2022/10/18 10:28:57;;;;;;;2.92;0.80;;;;;;;;;;5078845;28;20127;-90
2022/10/18 10:31:28;;;;;;;1.35;0.75;;;;;;;;;;5080162;28;20051;-90
2022/10/18 10:34:00;;;;;;;1.85;1.15;;;;;;;;;;5087751;28;20044;-89
2022/10/18 10:36:31;;;;;;;5.20;0.80;;;;;;;;;;5078992;28;20055;-88
2022/10/18 10:39:06;;;;;;;0.93;0.60;;;;;;;;;;5084963;28;20508;-88
2022/10/18 10:41:35;;;;;;;1.25;0.70;;;;;;;;;;5077768;28;20391;-88
2022/10/18 10:44:04;;;;;;;2.20;0.80;;;;;;;;;;5090325;28;20060;-90
2022/10/18 10:46:36;;;;;;;1.35;0.90;;;;;;;;;;5081188;28;20048;-91
2022/10/18 10:49:05;;;;;;;2.63;1.10;;;;;;;;;;5087233;28;20048;-92
2022/10/18 10:51:56;;;;;;;1.90;0.80;;;;;;;;;;5082331;28;20094;-89
2022/10/18 10:54:37;;;;;;;1.83;1.38;;;;;;;;;;5081308;28;20041;-91
2022/10/18 10:57:10;;;;;;;1.35;0.85;;;;;;;;;;5078434;28;20047;-88
2022/10/18 10:59:41;;;;;;;2.78;0.77;;;;;;;;;;5081247;28;20126;-89
2022/10/18 11:02:20;;;;;;;1.13;0.68;;;;;;;;;;5083284;28;20051;-91
2022/10/18 11:04:50;;;;;;;2.50;0.75;;;;;;;;;;5079591;28;20068;-89
2022/10/18 11:07:24;;;;;;;1.45;0.63;;;;;;;;;;5079452;28;20080;-88
2022/10/18 11:09:57;;;;;;;2.42;1.10;;;;;;;;;;5079437;28;20040;-89
2022/10/18 11:12:27;;;;;;;1.85;1.08;;;;;;;;;;5075885;28;20060;-88
2022/10/18 11:15:04;;;;;;;1.85;0.65;;;;;;;;;;5077069;28;20061;-88
2022/10/18 11:17:36;;;;;;;2.75;1.45;;;;;;;;;;5081181;28;20454;-92
2022/10/18 11:20:18;;;;;;;6.20;1.50;;;;;;;;;;5080119;28;20037;-90
2022/10/18 11:22:53;;;;;;;0.40;0.40;;;;;;;;;;5078444;28;20124;-90
2022/10/18 11:25:23;;;;;;;0.75;0.70;;;;;;;;;;5073550;28;20389;-86
2022/10/18 11:27:58;;;;;;;1.67;0.82;;;;;;;;;;5078075;28;20040;-89
2022/10/18 11:30:32;;;;;;;1.85;0.95;;;;;;;;;;5086727;28;20055;-89
2022/10/18 11:33:06;;;;;;;0.75;0.75;;;;;;;;;;5074275;28;20055;-90
2022/10/18 11:35:39;;;;;;;1.60;0.60;;;;;;;;;;5082357;28;20087;-91
2022/10/18 11:38:16;;;;;;;1.27;0.68;;;;;;;;;;5075173;28;20662;-89
2022/10/18 11:40:50;;;;;;;1.58;1.00;;;;;;;;;;5080349;28;20159;-91
2022/10/18 11:43:23;;;;;;;1.27;0.87;;;;;;;;;;5079061;28;20144;-92
2022/10/18 11:46:05;;;;;;;2.28;1.55;;;;;;;;;;5073187;28;20044;-91
2022/10/18 11:48:49;;;;;;;1.60;1.00;;;;;;;;;;5085787;28;20077;-92
2022/10/18 11:51:24;;;;;;;4.55;1.00;;;;;;;;;;5082411;28;20053;-93
2022/10/18 11:54:23;;;;;;;0.90;0.70;;;;;;;;;;5081172;28;20058;-90
2022/10/18 11:56:53;;;;;;;4.80;0.85;;;;;;;;;;5082676;28;20255;-89
2022/10/18 11:59:28;;;;;;;1.15;0.70;;;;;;;;;;5079481;28;20070;-90
2022/10/18 12:02:03;;;;;;;3.65;1.15;;;;;;;;;;5084116;28;20067;-92
2022/10/18 12:04:34;;;;;;;2.45;0.88;;;;;;;;;;5078426;28;20123;-91
2022/10/18 12:07:14;;;;;;;1.52;0.90;;;;;;;;;;5085207;28;20074;-89
2022/10/18 12:09:46;;;;;;;1.70;1.08;;;;;;;;;;5085296;28;20059;-89
2022/10/18 12:12:18;;;;;;;0.57;0.50;;;;;;;;;;5079051;28;20143;-90
2022/10/18 12:14:49;;;;;;;4.10;1.17;;;;;;;;;;5080227;28;20040;-91
2022/10/18 12:17:20;;;;;;;6.82;1.35;;;;;;;;;;5079575;28;20056;-92
2022/10/18 12:20:14;;;;;;;3.35;1.00;;;;;;;;;;5073762;28;20606;-93
2022/10/18 12:22:46;;;;;;;1.65;0.80;;;;;;;;;;5079768;28;20220;-91
2022/10/18 12:25:17;;;;;;;7.68;0.93;;;;;;;;;;5077878;28;20174;-90
2022/10/18 12:27:49;;;;;;;1.67;0.88;;;;;;;;;;5075805;28;20066;-89
2022/10/18 12:30:23;;;;;;;2.00;0.82;;;;;;;;;;5074461;28;20129;-90
2022/10/18 12:32:54;;;;;;;1.65;0.77;;;;;;;;;;5074843;28;20178;-89
2022/10/18 12:35:34;;;;;;;2.15;0.70;;;;;;;;;;5082889;28;20048;-90
2022/10/18 12:38:17;;;;;;;0.90;0.60;;;;;;;;;;5077830;28;20073;-88
2022/10/18 12:40:49;;;;;;;2.40;0.80;;;;;;;;;;5082837;28;20072;-90
2022/10/18 12:43:18;;;;;;;1.40;0.60;;;;;;;;;;5079393;28;20055;-91
2022/10/18 12:45:51;;;;;;;2.95;0.70;;;;;;;;;;5086764;28;20118;-92
2022/10/18 12:48:37;;;;;;;4.13;0.88;;;;;;;;;;5085531;28;20046;-91
2022/10/18 12:51:07;;;;;;;0.90;0.70;;;;;;;;;;5082801;28;20040;-89
2022/10/18 12:53:36;;;;;;;1.58;0.88;;;;;;;;;;5080150;28;20079;-92
2022/10/18 12:56:31;;;;;;;1.45;0.82;;;;;;;;;;5085761;28;20048;-90
2022/10/18 12:59:14;;;;;;;3.40;0.60;;;;;;;;;;5043473;28;20048;-89
2022/10/18 13:01:58;;;;;;;1.25;0.57;;;;;;;;;;5083681;28;20122;-89
2022/10/18 13:04:37;;;;;;;8.93;0.95;;;;;;;;;;5081259;28;20105;-89
2022/10/18 13:07:12;;;;;;;0.90;0.40;;;;;;;;;;5077605;28;20068;-94
2022/10/18 13:09:43;;;;;;;2.70;0.98;;;;;;;;;;5080794;28;20048;-95
2022/10/18 13:12:30;;;;;;;1.65;0.73;;;;;;;;;;5084085;28;20054;-89
2022/10/18 13:15:01;;;;;;;2.05;0.90;;;;;;;;;;5082479;28;20082;-88
2022/10/18 13:17:52;;;;;;;0.90;0.77;;;;;;;;;;5082612;28;20048;-89
2022/10/18 13:20:25;;;;;;;2.53;1.02;;;;;;;;;;5086797;28;20056;-90
2022/10/18 13:23:02;;;;;;;3.33;1.25;;;;;;;;;;5089589;28;20507;-95
2022/10/18 13:25:36;;;;;;;1.73;0.68;;;;;;;;;;5089386;28;20048;-91
2022/10/18 13:28:14;;;;;;;0.90;0.50;;;;;;;;;;5084149;28;20052;-93
2022/10/18 13:30:47;;;;;;;2.05;0.82;;;;;;;;;;5091217;28;20349;-90
2022/10/18 13:33:30;;;;;;;2.42;0.65;;;;;;;;;;5080754;28;20059;-91
2022/10/18 13:36:01;;;;;;;1.25;0.68;;;;;;;;;;5082173;28;20040;-90
2022/10/18 13:38:38;;;;;;;2.05;0.90;;;;;;;;;;5083568;28;20048;-90
2022/10/18 13:41:08;;;;;;;4.60;0.80;;;;;;;;;;5089060;28;20046;-91
2022/10/18 13:43:51;;;;;;;5.45;0.70;;;;;;;;;;5093027;28;20044;-91
2022/10/18 13:46:20;;;;;;;1.63;0.80;;;;;;;;;;5088506;28;20488;-89
2022/10/18 13:48:49;;;;;;;0.68;0.63;;;;;;;;;;5081330;28;20132;-91
2022/10/18 13:51:33;;;;;;;1.58;0.82;;;;;;;;;;5091622;28;20101;-90
2022/10/18 13:54:07;;;;;;;1.13;0.65;;;;;;;;;;5085562;28;20492;-90
2022/10/18 13:56:50;;;;;;;0.80;0.65;;;;;;;;;;5083575;28;20041;-89
2022/10/18 13:59:25;;;;;;;2.13;0.68;;;;;;;;;;5082483;28;20086;-91
2022/10/18 14:02:01;;;;;;;2.38;0.88;;;;;;;;;;5084333;28;20060;-94
2022/10/18 14:04:47;;;;;;;0.57;0.50;;;;;;;;;;5093623;28;20087;-94
2022/10/18 14:07:17;;;;;;;2.03;1.10;;;;;;;;;;5088009;28;20100;-92
2022/10/18 14:09:49;;;;;;;1.80;0.70;;;;;;;;;;5080810;28;20131;-91
2022/10/18 14:12:25;;;;;;;2.63;0.90;;;;;;;;;;5086898;28;20080;-92
2022/10/18 14:14:56;;;;;;;1.33;0.80;;;;;;;;;;5083173;28;20076;-91
2022/10/18 14:17:29;;;;;;;2.13;1.00;;;;;;;;;;5085297;28;20044;-90
2022/10/18 14:20:01;;;;;;;1.90;0.70;;;;;;;;;;5084040;28;20505;-91
2022/10/18 14:22:32;;;;;;;0.88;0.60;;;;;;;;;;5082536;28;20052;-92
2022/10/18 14:25:03;;;;;;;2.67;0.50;;;;;;;;;;5091758;28;20040;-91
2022/10/18 14:27:33;;;;;;;1.10;0.88;;;;;;;;;;5093789;28;20050;-94
2022/10/18 14:30:09;;;;;;;1.67;0.80;;;;;;;;;;5095006;28;20059;-96
2022/10/18 14:32:38;;;;;;;1.52;0.88;;;;;;;;;;5092715;28;20056;-91
2022/10/18 14:35:16;;;;;;;1.20;1.00;;;;;;;;;;5091919;28;20075;-90
2022/10/18 14:38:00;;;;;;;3.58;1.52;;;;;;;;;;5085455;28;20071;-90
2022/10/18 14:40:36;;;;;;;3.90;0.88;;;;;;;;;;5091694;28;20091;-90
2022/10/18 14:43:07;;;;;;;1.05;0.65;;;;;;;;;;5078421;28;20114;-89
2022/10/18 14:45:35;;;;;;;7.85;1.08;;;;;;;;;;5078471;28;20139;-92
2022/10/18 14:48:07;;;;;;;5.35;0.75;;;;;;;;;;5092887;28;20044;-92
2022/10/18 14:50:36;;;;;;;1.48;0.95;;;;;;;;;;5088298;28;20055;-93
2022/10/18 14:53:06;;;;;;;2.90;0.60;;;;;;;;;;5089435;28;20067;-92
2022/10/18 14:55:37;;;;;;;4.72;0.75;;;;;;;;;;5080809;28;20064;-90
2022/10/18 14:58:09;;;;;;;1.08;0.80;;;;;;;;;;5086374;28;20127;-92
2022/10/18 15:00:38;;;;;;;0.95;0.60;;;;;;;;;;5088335;28;20052;-92
2022/10/18 15:03:13;;;;;;;1.50;0.85;;;;;;;;;;5085220;28;20131;-91
2022/10/18 15:05:52;;;;;;;1.00;0.65;;;;;;;;;;5085747;28;20046;-89
2022/10/18 15:08:22;;;;;;;0.80;0.43;;;;;;;;;;5090031;28;20062;-89
2022/10/18 15:10:53;;;;;;;1.38;0.70;;;;;;;;;;5092159;28;20456;-91
2022/10/18 15:13:23;;;;;;;2.78;0.80;;;;;;;;;;5080743;28;20051;-91
2022/10/18 15:15:52;;;;;;;0.63;0.57;;;;;;;;;;5079851;28;20071;-91
2022/10/18 15:18:21;;;;;;;0.98;0.65;;;;;;;;;;5080967;28;20055;-90
2022/10/18 15:21:05;;;;;;;6.07;0.70;;;;;;;;;;5075246;28;20139;-89
2022/10/18 15:23:33;;;;;;;1.45;0.63;;;;;;;;;;5080752;28;20106;-90
2022/10/18 15:26:06;;;;;;;1.30;0.60;;;;;;;;;;5078430;28;20052;-88
2022/10/18 15:28:36;;;;;;;0.88;0.60;;;;;;;;;;5087801;28;20159;-90
2022/10/18 15:31:05;;;;;;;1.20;0.65;;;;;;;;;;5079068;28;20048;-90
2022/10/18 15:33:34;;;;;;;1.02;0.45;;;;;;;;;;5089950;28;20554;-89
2022/10/18 15:36:10;;;;;;;0.95;0.68;;;;;;;;;;5082968;28;20048;-89
2022/10/18 15:38:39;;;;;;;1.05;0.63;;;;;;;;;;5087725;28;20102;-90
2022/10/18 15:41:22;;;;;;;0.55;0.50;;;;;;;;;;5075419;28;20063;-89
2022/10/18 15:43:52;;;;;;;1.20;0.88;;;;;;;;;;5088120;28;20575;-89
2022/10/18 15:46:30;;;;;;;1.15;0.65;;;;;;;;;;5085232;28;20058;-89
2022/10/18 15:49:19;;;;;;;3.90;0.82;;;;;;;;;;5087995;28;20093;-89
2022/10/18 15:51:48;;;;;;;0.95;0.82;;;;;;;;;;5083923;28;20051;-89
2022/10/18 15:54:18;;;;;;;4.32;0.75;;;;;;;;;;5085669;28;20539;-89
2022/10/18 15:56:47;;;;;;;1.63;0.80;;;;;;;;;;5088683;28;20079;-89
2022/10/18 15:59:24;;;;;;;1.23;0.77;;;;;;;;;;5084120;28;20048;-91
2022/10/18 16:01:53;;;;;;;1.35;0.80;;;;;;;;;;5080932;28;20048;-90
2022/10/18 16:04:24;;;;;;;1.02;0.70;;;;;;;;;;5086154;28;20048;-88
2022/10/18 16:06:53;;;;;;;0.65;0.65;;;;;;;;;;5077278;28;20052;-90
2022/10/18 16:09:21;;;;;;;1.80;0.80;;;;;;;;;;5083959;28;20047;-89
2022/10/18 16:11:50;;;;;;;1.27;0.80;;;;;;;;;;5087975;28;20119;-92